sensor_id;sensor_type;location;lat;lon;timestamp;P1;durP1;ratioP1;P2;durP2;ratioP2
73172;SDS011;61388;54.962;73.394;2022-09-03T00:01:34;70.38;;;65.88;;
73172;SDS011;61388;54.962;73.394;2022-09-03T00:04:16;100.20;;;93.63;;
73172;SDS011;61388;54.962;73.394;2022-09-03T00:07:00;94.43;;;88.53;;
73172;SDS011;61388;54.962;73.394;2022-09-03T00:09:39;126.68;;;117.90;;
73172;SDS011;61388;54.962;73.394;2022-09-03T00:12:13;119.80;;;111.90;;
73172;SDS011;61388;54.962;73.394;2022-09-03T00:14:50;68.07;;;63.55;;
73172;SDS011;61388;54.962;73.394;2022-09-03T00:17:24;73.07;;;67.93;;
73172;SDS011;61388;54.962;73.394;2022-09-03T00:19:58;83.47;;;77.97;;
73172;SDS011;61388;54.962;73.394;2022-09-03T00:22:46;75.45;;;70.50;;
73172;SDS011;61388;54.962;73.394;2022-09-03T00:25:18;87.20;;;81.87;;
73172;SDS011;61388;54.962;73.394;2022-09-03T00:27:56;84.57;;;78.32;;
73172;SDS011;61388;54.962;73.394;2022-09-03T00:30:22;82.90;;;77.43;;
73172;SDS011;61388;54.962;73.394;2022-09-03T00:32:56;69.82;;;65.10;;
73172;SDS011;61388;54.962;73.394;2022-09-03T00:35:26;84.43;;;78.70;;
73172;SDS011;61388;54.962;73.394;2022-09-03T00:37:52;73.63;;;68.97;;
73172;SDS011;61388;54.962;73.394;2022-09-03T00:41:03;113.20;;;105.47;;
73172;SDS011;61388;54.962;73.394;2022-09-03T00:43:18;97.72;;;91.55;;
73172;SDS011;61388;54.962;73.394;2022-09-03T00:48:26;104.22;;;97.03;;
73172;SDS011;61388;54.962;73.394;2022-09-03T00:51:04;112.87;;;105.27;;
73172;SDS011;61388;54.962;73.394;2022-09-03T00:59:56;129.18;;;119.40;;
73172;SDS011;61388;54.962;73.394;2022-09-03T01:02:24;89.85;;;83.07;;
73172;SDS011;61388;54.962;73.394;2022-09-03T01:15:29;46.42;;;43.13;;
73172;SDS011;61388;54.962;73.394;2022-09-03T01:20:32;41.38;;;38.22;;
73172;SDS011;61388;54.962;73.394;2022-09-03T01:30:44;76.10;;;70.97;;
73172;SDS011;61388;54.962;73.394;2022-09-03T01:33:15;20.42;;;18.10;;
73172;SDS011;61388;54.962;73.394;2022-09-03T01:35:45;20.65;;;17.42;;
73172;SDS011;61388;54.962;73.394;2022-09-03T01:38:26;17.27;;;14.05;;
73172;SDS011;61388;54.962;73.394;2022-09-03T01:41:02;18.33;;;11.38;;
73172;SDS011;61388;54.962;73.394;2022-09-03T01:46:44;89.28;;;83.00;;
73172;SDS011;61388;54.962;73.394;2022-09-03T01:51:49;50.90;;;46.97;;
73172;SDS011;61388;54.962;73.394;2022-09-03T02:00:17;92.25;;;85.20;;
73172;SDS011;61388;54.962;73.394;2022-09-03T02:02:51;91.95;;;85.22;;
73172;SDS011;61388;54.962;73.394;2022-09-03T02:05:18;90.38;;;83.07;;
73172;SDS011;61388;54.962;73.394;2022-09-03T02:08:09;174.45;;;161.07;;
73172;SDS011;61388;54.962;73.394;2022-09-03T02:13:09;115.85;;;108.10;;
73172;SDS011;61388;54.962;73.394;2022-09-03T02:15:36;87.85;;;80.68;;
73172;SDS011;61388;54.962;73.394;2022-09-03T02:18:17;72.32;;;66.68;;
73172;SDS011;61388;54.962;73.394;2022-09-03T02:20:53;65.47;;;60.00;;
73172;SDS011;61388;54.962;73.394;2022-09-03T02:23:31;13.47;;;7.60;;
73172;SDS011;61388;54.962;73.394;2022-09-03T02:26:04;20.42;;;9.02;;
73172;SDS011;61388;54.962;73.394;2022-09-03T02:28:35;19.33;;;9.07;;
73172;SDS011;61388;54.962;73.394;2022-09-03T02:31:01;19.70;;;8.30;;
73172;SDS011;61388;54.962;73.394;2022-09-03T02:33:27;17.88;;;8.65;;
73172;SDS011;61388;54.962;73.394;2022-09-03T02:35:54;19.60;;;9.17;;
73172;SDS011;61388;54.962;73.394;2022-09-03T02:38:21;18.92;;;8.85;;
73172;SDS011;61388;54.962;73.394;2022-09-03T02:40:50;21.52;;;8.23;;
73172;SDS011;61388;54.962;73.394;2022-09-03T02:45:47;20.48;;;8.55;;
73172;SDS011;61388;54.962;73.394;2022-09-03T02:48:25;18.67;;;8.77;;
73172;SDS011;61388;54.962;73.394;2022-09-03T02:50:51;22.23;;;8.85;;
73172;SDS011;61388;54.962;73.394;2022-09-03T02:53:17;19.80;;;8.73;;
73172;SDS011;61388;54.962;73.394;2022-09-03T02:55:43;19.33;;;8.50;;
73172;SDS011;61388;54.962;73.394;2022-09-03T02:58:10;18.30;;;8.55;;
73172;SDS011;61388;54.962;73.394;2022-09-03T03:00:36;16.33;;;8.40;;
73172;SDS011;61388;54.962;73.394;2022-09-03T03:03:03;25.00;;;8.98;;
73172;SDS011;61388;54.962;73.394;2022-09-03T03:05:35;20.67;;;9.65;;
73172;SDS011;61388;54.962;73.394;2022-09-03T03:08:03;18.95;;;9.10;;
73172;SDS011;61388;54.962;73.394;2022-09-03T03:10:34;18.98;;;8.57;;
73172;SDS011;61388;54.962;73.394;2022-09-03T03:13:07;19.93;;;9.63;;
73172;SDS011;61388;54.962;73.394;2022-09-03T03:15:43;18.38;;;8.70;;
73172;SDS011;61388;54.962;73.394;2022-09-03T03:18:10;25.67;;;9.63;;
73172;SDS011;61388;54.962;73.394;2022-09-03T03:20:40;18.98;;;9.60;;
73172;SDS011;61388;54.962;73.394;2022-09-03T03:23:06;19.40;;;9.15;;
73172;SDS011;61388;54.962;73.394;2022-09-03T03:25:37;21.90;;;9.77;;
73172;SDS011;61388;54.962;73.394;2022-09-03T03:28:04;21.13;;;9.48;;
73172;SDS011;61388;54.962;73.394;2022-09-03T03:30:40;24.45;;;11.43;;
73172;SDS011;61388;54.962;73.394;2022-09-03T03:33:08;17.08;;;9.23;;
73172;SDS011;61388;54.962;73.394;2022-09-03T03:35:35;24.38;;;12.40;;
73172;SDS011;61388;54.962;73.394;2022-09-03T03:38:01;20.70;;;10.77;;
73172;SDS011;61388;54.962;73.394;2022-09-03T03:40:32;20.42;;;10.77;;
73172;SDS011;61388;54.962;73.394;2022-09-03T03:42:59;23.67;;;10.75;;
73172;SDS011;61388;54.962;73.394;2022-09-03T03:45:33;14.00;;;10.30;;
73172;SDS011;61388;54.962;73.394;2022-09-03T03:48:04;22.88;;;11.38;;
73172;SDS011;61388;54.962;73.394;2022-09-03T03:50:30;21.90;;;12.40;;
73172;SDS011;61388;54.962;73.394;2022-09-03T03:53:01;21.45;;;13.02;;
73172;SDS011;61388;54.962;73.394;2022-09-03T03:55:32;26.08;;;15.30;;
73172;SDS011;61388;54.962;73.394;2022-09-03T03:57:58;23.15;;;18.35;;
73172;SDS011;61388;54.962;73.394;2022-09-03T04:00:34;24.70;;;18.83;;
73172;SDS011;61388;54.962;73.394;2022-09-03T04:03:04;26.43;;;21.87;;
73172;SDS011;61388;54.962;73.394;2022-09-03T04:05:30;25.67;;;21.02;;
73172;SDS011;61388;54.962;73.394;2022-09-03T04:07:59;29.30;;;21.30;;
73172;SDS011;61388;54.962;73.394;2022-09-03T04:10:36;26.40;;;22.33;;
73172;SDS011;61388;54.962;73.394;2022-09-03T04:13:02;26.77;;;21.85;;
73172;SDS011;61388;54.962;73.394;2022-09-03T04:15:33;22.73;;;20.33;;
73172;SDS011;61388;54.962;73.394;2022-09-03T04:17:59;29.58;;;19.08;;
73172;SDS011;61388;54.962;73.394;2022-09-03T04:20:25;26.90;;;20.25;;
73172;SDS011;61388;54.962;73.394;2022-09-03T04:22:52;31.77;;;21.45;;
73172;SDS011;61388;54.962;73.394;2022-09-03T04:25:22;25.17;;;21.13;;
73172;SDS011;61388;54.962;73.394;2022-09-03T04:27:49;26.27;;;22.17;;
73172;SDS011;61388;54.962;73.394;2022-09-03T04:30:27;31.95;;;20.05;;
73172;SDS011;61388;54.962;73.394;2022-09-03T04:33:12;27.08;;;22.30;;
73172;SDS011;61388;54.962;73.394;2022-09-03T04:35:38;20.70;;;18.55;;
73172;SDS011;61388;54.962;73.394;2022-09-03T04:38:10;30.67;;;19.98;;
73172;SDS011;61388;54.962;73.394;2022-09-03T04:40:36;29.67;;;20.37;;
73172;SDS011;61388;54.962;73.394;2022-09-03T04:43:02;36.40;;;21.65;;
73172;SDS011;61388;54.962;73.394;2022-09-03T04:45:29;34.15;;;23.05;;
73172;SDS011;61388;54.962;73.394;2022-09-03T04:48:05;32.03;;;24.63;;
73172;SDS011;61388;54.962;73.394;2022-09-03T04:50:35;31.98;;;22.20;;
73172;SDS011;61388;54.962;73.394;2022-09-03T04:53:14;43.77;;;25.40;;
73172;SDS011;61388;54.962;73.394;2022-09-03T04:55:43;32.38;;;23.08;;
73172;SDS011;61388;54.962;73.394;2022-09-03T04:58:09;32.05;;;21.30;;
73172;SDS011;61388;54.962;73.394;2022-09-03T05:00:41;40.50;;;26.02;;
73172;SDS011;61388;54.962;73.394;2022-09-03T05:03:13;31.65;;;20.45;;
73172;SDS011;61388;54.962;73.394;2022-09-03T05:05:51;29.50;;;19.97;;
73172;SDS011;61388;54.962;73.394;2022-09-03T05:08:20;31.80;;;19.88;;
73172;SDS011;61388;54.962;73.394;2022-09-03T05:10:48;32.13;;;15.68;;
73172;SDS011;61388;54.962;73.394;2022-09-03T05:13:25;32.80;;;15.40;;
73172;SDS011;61388;54.962;73.394;2022-09-03T05:16:02;28.23;;;14.48;;
73172;SDS011;61388;54.962;73.394;2022-09-03T05:18:41;30.48;;;14.02;;
73172;SDS011;61388;54.962;73.394;2022-09-03T05:21:17;33.95;;;14.43;;
73172;SDS011;61388;54.962;73.394;2022-09-03T05:23:44;32.72;;;15.07;;
73172;SDS011;61388;54.962;73.394;2022-09-03T05:26:17;37.78;;;12.63;;
73172;SDS011;61388;54.962;73.394;2022-09-03T05:28:47;41.60;;;15.15;;
73172;SDS011;61388;54.962;73.394;2022-09-03T05:31:19;28.03;;;15.07;;
73172;SDS011;61388;54.962;73.394;2022-09-03T05:33:56;35.55;;;18.92;;
73172;SDS011;61388;54.962;73.394;2022-09-03T05:36:32;29.38;;;13.60;;
73172;SDS011;61388;54.962;73.394;2022-09-03T05:38:59;24.73;;;13.00;;
73172;SDS011;61388;54.962;73.394;2022-09-03T05:41:26;30.23;;;14.45;;
73172;SDS011;61388;54.962;73.394;2022-09-03T05:44:02;25.20;;;11.53;;
73172;SDS011;61388;54.962;73.394;2022-09-03T05:46:29;22.15;;;11.73;;
73172;SDS011;61388;54.962;73.394;2022-09-03T05:49:06;25.42;;;11.27;;
73172;SDS011;61388;54.962;73.394;2022-09-03T05:51:37;39.88;;;12.10;;
73172;SDS011;61388;54.962;73.394;2022-09-03T05:54:07;31.70;;;14.05;;
73172;SDS011;61388;54.962;73.394;2022-09-03T05:56:34;33.57;;;12.60;;
73172;SDS011;61388;54.962;73.394;2022-09-03T05:59:16;37.78;;;14.23;;
73172;SDS011;61388;54.962;73.394;2022-09-03T06:01:47;28.80;;;12.77;;
73172;SDS011;61388;54.962;73.394;2022-09-03T06:04:14;34.88;;;11.82;;
73172;SDS011;61388;54.962;73.394;2022-09-03T06:06:42;33.55;;;21.60;;
73172;SDS011;61388;54.962;73.394;2022-09-03T06:09:19;38.15;;;13.23;;
73172;SDS011;61388;54.962;73.394;2022-09-03T06:11:46;25.73;;;11.82;;
73172;SDS011;61388;54.962;73.394;2022-09-03T06:14:16;38.25;;;16.05;;
73172;SDS011;61388;54.962;73.394;2022-09-03T06:16:44;20.40;;;11.30;;
73172;SDS011;61388;54.962;73.394;2022-09-03T06:23:35;30.60;;;11.48;;
73172;SDS011;61388;54.962;73.394;2022-09-03T06:26:09;33.03;;;17.23;;
73172;SDS011;61388;54.962;73.394;2022-09-03T06:28:38;30.60;;;12.82;;
73172;SDS011;61388;54.962;73.394;2022-09-03T06:31:06;28.45;;;12.05;;
73172;SDS011;61388;54.962;73.394;2022-09-03T06:33:33;24.60;;;11.68;;
73172;SDS011;61388;54.962;73.394;2022-09-03T06:36:00;27.95;;;11.85;;
73172;SDS011;61388;54.962;73.394;2022-09-03T06:38:30;25.80;;;11.10;;
73172;SDS011;61388;54.962;73.394;2022-09-03T06:41:12;35.40;;;11.77;;
73172;SDS011;61388;54.962;73.394;2022-09-03T06:43:39;33.90;;;11.88;;
73172;SDS011;61388;54.962;73.394;2022-09-03T06:46:12;25.83;;;11.05;;
73172;SDS011;61388;54.962;73.394;2022-09-03T06:48:39;31.80;;;11.70;;
73172;SDS011;61388;54.962;73.394;2022-09-03T06:51:10;29.13;;;11.50;;
73172;SDS011;61388;54.962;73.394;2022-09-03T06:53:42;35.10;;;12.70;;
73172;SDS011;61388;54.962;73.394;2022-09-03T06:56:20;30.80;;;11.63;;
73172;SDS011;61388;54.962;73.394;2022-09-03T06:58:54;30.17;;;12.00;;
73172;SDS011;61388;54.962;73.394;2022-09-03T07:01:31;33.70;;;11.57;;
73172;SDS011;61388;54.962;73.394;2022-09-03T07:04:04;31.38;;;11.05;;
73172;SDS011;61388;54.962;73.394;2022-09-03T07:06:39;25.27;;;11.13;;
73172;SDS011;61388;54.962;73.394;2022-09-03T07:09:07;27.45;;;12.75;;
73172;SDS011;61388;54.962;73.394;2022-09-03T07:11:39;26.83;;;13.88;;
73172;SDS011;61388;54.962;73.394;2022-09-03T07:14:11;51.15;;;13.15;;
73172;SDS011;61388;54.962;73.394;2022-09-03T07:16:48;33.22;;;13.65;;
73172;SDS011;61388;54.962;73.394;2022-09-03T07:19:15;20.75;;;10.30;;
73172;SDS011;61388;54.962;73.394;2022-09-03T07:21:41;33.55;;;11.30;;
73172;SDS011;61388;54.962;73.394;2022-09-03T07:24:08;28.13;;;10.82;;
73172;SDS011;61388;54.962;73.394;2022-09-03T07:26:44;28.93;;;11.60;;
73172;SDS011;61388;54.962;73.394;2022-09-03T07:29:21;26.25;;;10.48;;
73172;SDS011;61388;54.962;73.394;2022-09-03T07:31:48;29.13;;;10.40;;
73172;SDS011;61388;54.962;73.394;2022-09-03T07:34:17;33.80;;;11.38;;
73172;SDS011;61388;54.962;73.394;2022-09-03T07:36:45;21.77;;;9.88;;
73172;SDS011;61388;54.962;73.394;2022-09-03T07:39:25;38.17;;;11.57;;
73172;SDS011;61388;54.962;73.394;2022-09-03T07:41:51;28.23;;;11.38;;
73172;SDS011;61388;54.962;73.394;2022-09-03T07:44:23;24.65;;;10.05;;
73172;SDS011;61388;54.962;73.394;2022-09-03T07:46:49;23.77;;;11.48;;
73172;SDS011;61388;54.962;73.394;2022-09-03T07:49:15;26.53;;;10.93;;
73172;SDS011;61388;54.962;73.394;2022-09-03T07:51:45;24.40;;;11.00;;
73172;SDS011;61388;54.962;73.394;2022-09-03T07:54:15;23.08;;;9.82;;
73172;SDS011;61388;54.962;73.394;2022-09-03T07:56:41;51.38;;;11.57;;
73172;SDS011;61388;54.962;73.394;2022-09-03T07:59:07;29.48;;;12.30;;
73172;SDS011;61388;54.962;73.394;2022-09-03T08:01:34;28.33;;;10.40;;
73172;SDS011;61388;54.962;73.394;2022-09-03T08:04:05;27.35;;;11.07;;
73172;SDS011;61388;54.962;73.394;2022-09-03T08:06:32;27.35;;;10.45;;
73172;SDS011;61388;54.962;73.394;2022-09-03T08:09:09;32.10;;;10.70;;
73172;SDS011;61388;54.962;73.394;2022-09-03T08:14:27;21.50;;;10.40;;
73172;SDS011;61388;54.962;73.394;2022-09-03T08:16:58;21.80;;;9.57;;
73172;SDS011;61388;54.962;73.394;2022-09-03T08:19:25;21.42;;;10.15;;
73172;SDS011;61388;54.962;73.394;2022-09-03T08:21:51;23.63;;;10.00;;
73172;SDS011;61388;54.962;73.394;2022-09-03T08:24:37;28.55;;;10.98;;
73172;SDS011;61388;54.962;73.394;2022-09-03T08:27:06;22.07;;;11.80;;
73172;SDS011;61388;54.962;73.394;2022-09-03T08:29:32;27.42;;;12.38;;
73172;SDS011;61388;54.962;73.394;2022-09-03T08:31:59;33.50;;;12.27;;
73172;SDS011;61388;54.962;73.394;2022-09-03T08:34:25;30.20;;;12.77;;
73172;SDS011;61388;54.962;73.394;2022-09-03T08:36:51;34.35;;;12.85;;
73172;SDS011;61388;54.962;73.394;2022-09-03T08:39:18;27.13;;;13.00;;
73172;SDS011;61388;54.962;73.394;2022-09-03T08:54:44;26.00;;;14.07;;
73172;SDS011;61388;54.962;73.394;2022-09-03T09:00:15;23.40;;;13.13;;
73172;SDS011;61388;54.962;73.394;2022-09-03T09:02:50;28.38;;;13.52;;
73172;SDS011;61388;54.962;73.394;2022-09-03T09:05:29;20.30;;;13.00;;
73172;SDS011;61388;54.962;73.394;2022-09-03T09:13:45;23.65;;;12.27;;
73172;SDS011;61388;54.962;73.394;2022-09-03T09:21:46;26.25;;;12.18;;
73172;SDS011;61388;54.962;73.394;2022-09-03T09:24:19;22.85;;;13.02;;
73172;SDS011;61388;54.962;73.394;2022-09-03T09:26:48;33.80;;;15.00;;
73172;SDS011;61388;54.962;73.394;2022-09-03T09:29:26;41.30;;;25.30;;
73172;SDS011;61388;54.962;73.394;2022-09-03T09:31:56;27.13;;;15.07;;
73172;SDS011;61388;54.962;73.394;2022-09-03T09:34:28;30.13;;;12.95;;
73172;SDS011;61388;54.962;73.394;2022-09-03T09:37:00;22.77;;;13.00;;
73172;SDS011;61388;54.962;73.394;2022-09-03T09:39:29;22.25;;;12.52;;
73172;SDS011;61388;54.962;73.394;2022-09-03T09:42:09;24.75;;;14.13;;
73172;SDS011;61388;54.962;73.394;2022-09-03T09:44:44;19.00;;;12.47;;
73172;SDS011;61388;54.962;73.394;2022-09-03T09:47:12;30.50;;;12.57;;
73172;SDS011;61388;54.962;73.394;2022-09-03T09:52:12;32.90;;;12.15;;
73172;SDS011;61388;54.962;73.394;2022-09-03T09:54:47;32.80;;;12.43;;
73172;SDS011;61388;54.962;73.394;2022-09-03T09:57:17;43.43;;;12.00;;
73172;SDS011;61388;54.962;73.394;2022-09-03T09:59:46;33.83;;;12.15;;
73172;SDS011;61388;54.962;73.394;2022-09-03T10:02:19;42.17;;;13.30;;
73172;SDS011;61388;54.962;73.394;2022-09-03T10:04:49;26.65;;;11.02;;
73172;SDS011;61388;54.962;73.394;2022-09-03T10:10:13;30.90;;;14.20;;
73172;SDS011;61388;54.962;73.394;2022-09-03T10:12:41;47.83;;;20.90;;
73172;SDS011;61388;54.962;73.394;2022-09-03T10:15:26;52.22;;;27.63;;
73172;SDS011;61388;54.962;73.394;2022-09-03T10:18:14;27.13;;;12.55;;
73172;SDS011;61388;54.962;73.394;2022-09-03T10:23:17;23.67;;;10.70;;
73172;SDS011;61388;54.962;73.394;2022-09-03T10:28:19;26.77;;;11.25;;
73172;SDS011;61388;54.962;73.394;2022-09-03T10:31:00;22.30;;;10.20;;
73172;SDS011;61388;54.962;73.394;2022-09-03T10:33:29;25.85;;;10.85;;
73172;SDS011;61388;54.962;73.394;2022-09-03T10:36:09;35.63;;;11.10;;
73172;SDS011;61388;54.962;73.394;2022-09-03T10:38:39;40.17;;;11.45;;
73172;SDS011;61388;54.962;73.394;2022-09-03T10:41:11;28.40;;;11.10;;
73172;SDS011;61388;54.962;73.394;2022-09-03T10:43:53;36.22;;;11.85;;
73172;SDS011;61388;54.962;73.394;2022-09-03T10:46:26;34.08;;;12.38;;
73172;SDS011;61388;54.962;73.394;2022-09-03T10:51:43;33.20;;;11.80;;
73172;SDS011;61388;54.962;73.394;2022-09-03T10:54:31;40.95;;;14.13;;
73172;SDS011;61388;54.962;73.394;2022-09-03T10:57:23;39.75;;;12.35;;
73172;SDS011;61388;54.962;73.394;2022-09-03T11:02:42;42.30;;;14.03;;
73172;SDS011;61388;54.962;73.394;2022-09-03T11:10:15;45.72;;;16.65;;
73172;SDS011;61388;54.962;73.394;2022-09-03T11:18:13;47.83;;;20.65;;
73172;SDS011;61388;54.962;73.394;2022-09-03T11:20:40;49.03;;;19.83;;
73172;SDS011;61388;54.962;73.394;2022-09-03T11:23:17;42.95;;;19.77;;
73172;SDS011;61388;54.962;73.394;2022-09-03T11:25:52;36.22;;;16.70;;
73172;SDS011;61388;54.962;73.394;2022-09-03T11:28:25;41.97;;;19.77;;
73172;SDS011;61388;54.962;73.394;2022-09-03T11:31:16;45.05;;;19.67;;
73172;SDS011;61388;54.962;73.394;2022-09-03T11:33:55;40.35;;;18.35;;
73172;SDS011;61388;54.962;73.394;2022-09-03T11:36:32;39.35;;;20.65;;
73172;SDS011;61388;54.962;73.394;2022-09-03T11:38:59;33.15;;;18.13;;
73172;SDS011;61388;54.962;73.394;2022-09-03T11:41:33;44.67;;;18.00;;
73172;SDS011;61388;54.962;73.394;2022-09-03T11:44:17;34.60;;;16.38;;
73172;SDS011;61388;54.962;73.394;2022-09-03T11:46:54;35.95;;;19.15;;
73172;SDS011;61388;54.962;73.394;2022-09-03T11:49:28;35.22;;;16.75;;
73172;SDS011;61388;54.962;73.394;2022-09-03T11:51:57;30.63;;;15.15;;
73172;SDS011;61388;54.962;73.394;2022-09-03T11:54:41;32.47;;;13.67;;
73172;SDS011;61388;54.962;73.394;2022-09-03T11:57:26;33.33;;;14.48;;
73172;SDS011;61388;54.962;73.394;2022-09-03T11:59:53;34.78;;;15.40;;
73172;SDS011;61388;54.962;73.394;2022-09-03T12:02:40;32.90;;;15.30;;
73172;SDS011;61388;54.962;73.394;2022-09-03T12:05:26;39.70;;;15.80;;
73172;SDS011;61388;54.962;73.394;2022-09-03T12:11:05;32.78;;;17.33;;
73172;SDS011;61388;54.962;73.394;2022-09-03T12:13:44;35.47;;;17.33;;
73172;SDS011;61388;54.962;73.394;2022-09-03T12:18:53;34.47;;;16.05;;
73172;SDS011;61388;54.962;73.394;2022-09-03T12:21:22;27.90;;;13.73;;
73172;SDS011;61388;54.962;73.394;2022-09-03T12:23:49;27.27;;;14.55;;
73172;SDS011;61388;54.962;73.394;2022-09-03T12:26:21;43.80;;;15.10;;
73172;SDS011;61388;54.962;73.394;2022-09-03T12:29:02;33.58;;;14.63;;
73172;SDS011;61388;54.962;73.394;2022-09-03T12:31:44;29.23;;;14.90;;
73172;SDS011;61388;54.962;73.394;2022-09-03T12:34:17;33.87;;;14.67;;
73172;SDS011;61388;54.962;73.394;2022-09-03T12:37:03;32.55;;;14.18;;
73172;SDS011;61388;54.962;73.394;2022-09-03T12:40:00;31.38;;;13.63;;
73172;SDS011;61388;54.962;73.394;2022-09-03T12:46:23;44.13;;;14.30;;
73172;SDS011;61388;54.962;73.394;2022-09-03T12:53:49;38.47;;;13.70;;
73172;SDS011;61388;54.962;73.394;2022-09-03T12:56:41;49.40;;;15.10;;
73172;SDS011;61388;54.962;73.394;2022-09-03T13:00:12;34.28;;;13.98;;
73172;SDS011;61388;54.962;73.394;2022-09-03T13:05:42;37.67;;;14.73;;
73172;SDS011;61388;54.962;73.394;2022-09-03T13:08:17;48.83;;;17.23;;
73172;SDS011;61388;54.962;73.394;2022-09-03T13:10:44;41.05;;;17.67;;
73172;SDS011;61388;54.962;73.394;2022-09-03T13:13:31;40.33;;;19.10;;
73172;SDS011;61388;54.962;73.394;2022-09-03T13:16:25;45.65;;;18.48;;
73172;SDS011;61388;54.962;73.394;2022-09-03T13:27:02;42.53;;;17.38;;
73172;SDS011;61388;54.962;73.394;2022-09-03T13:32:28;51.77;;;17.97;;
73172;SDS011;61388;54.962;73.394;2022-09-03T13:35:27;36.22;;;16.38;;
73172;SDS011;61388;54.962;73.394;2022-09-03T13:37:57;37.15;;;17.00;;
73172;SDS011;61388;54.962;73.394;2022-09-03T13:44:01;42.42;;;17.58;;
73172;SDS011;61388;54.962;73.394;2022-09-03T13:50:50;43.47;;;19.30;;
73172;SDS011;61388;54.962;73.394;2022-09-03T14:05:07;46.30;;;19.87;;
73172;SDS011;61388;54.962;73.394;2022-09-03T14:07:47;50.97;;;19.40;;
73172;SDS011;61388;54.962;73.394;2022-09-03T14:15:57;35.67;;;16.20;;
73172;SDS011;61388;54.962;73.394;2022-09-03T14:18:36;34.63;;;15.23;;
73172;SDS011;61388;54.962;73.394;2022-09-03T14:21:16;33.63;;;16.13;;
73172;SDS011;61388;54.962;73.394;2022-09-03T14:23:54;38.67;;;16.42;;
73172;SDS011;61388;54.962;73.394;2022-09-03T14:26:32;35.15;;;16.00;;
73172;SDS011;61388;54.962;73.394;2022-09-03T14:29:05;30.58;;;16.40;;
73172;SDS011;61388;54.962;73.394;2022-09-03T14:39:54;40.80;;;14.43;;
73172;SDS011;61388;54.962;73.394;2022-09-03T14:45:17;32.07;;;13.67;;
73172;SDS011;61388;54.962;73.394;2022-09-03T14:50:49;37.58;;;13.75;;
73172;SDS011;61388;54.962;73.394;2022-09-03T14:53:26;35.38;;;12.63;;
73172;SDS011;61388;54.962;73.394;2022-09-03T14:56:54;41.80;;;13.13;;
73172;SDS011;61388;54.962;73.394;2022-09-03T15:01:37;38.05;;;11.70;;
73172;SDS011;61388;54.962;73.394;2022-09-03T15:06:52;36.13;;;12.77;;
73172;SDS011;61388;54.962;73.394;2022-09-03T15:09:45;34.38;;;12.27;;
73172;SDS011;61388;54.962;73.394;2022-09-03T15:12:23;30.13;;;10.77;;
73172;SDS011;61388;54.962;73.394;2022-09-03T15:14:54;29.55;;;11.23;;
73172;SDS011;61388;54.962;73.394;2022-09-03T15:19:56;35.58;;;10.80;;
73172;SDS011;61388;54.962;73.394;2022-09-03T15:22:40;34.88;;;11.18;;
73172;SDS011;61388;54.962;73.394;2022-09-03T15:25:21;38.87;;;10.10;;
73172;SDS011;61388;54.962;73.394;2022-09-03T15:30:54;31.15;;;11.05;;
73172;SDS011;61388;54.962;73.394;2022-09-03T15:33:28;28.75;;;10.68;;
73172;SDS011;61388;54.962;73.394;2022-09-03T15:36:16;31.55;;;10.80;;
73172;SDS011;61388;54.962;73.394;2022-09-03T15:41:20;28.42;;;9.95;;
73172;SDS011;61388;54.962;73.394;2022-09-03T15:43:59;26.30;;;9.55;;
73172;SDS011;61388;54.962;73.394;2022-09-03T15:49:06;34.67;;;9.27;;
73172;SDS011;61388;54.962;73.394;2022-09-03T15:54:42;27.48;;;9.25;;
73172;SDS011;61388;54.962;73.394;2022-09-03T15:57:16;37.88;;;9.50;;
73172;SDS011;61388;54.962;73.394;2022-09-03T15:59:59;27.35;;;8.48;;
73172;SDS011;61388;54.962;73.394;2022-09-03T16:02:44;29.30;;;9.15;;
73172;SDS011;61388;54.962;73.394;2022-09-03T16:11:35;36.80;;;7.88;;
73172;SDS011;61388;54.962;73.394;2022-09-03T16:14:15;22.20;;;7.82;;
73172;SDS011;61388;54.962;73.394;2022-09-03T16:19:31;32.40;;;8.63;;
73172;SDS011;61388;54.962;73.394;2022-09-03T16:24:28;25.85;;;8.02;;
73172;SDS011;61388;54.962;73.394;2022-09-03T16:27:30;31.95;;;8.55;;
73172;SDS011;61388;54.962;73.394;2022-09-03T16:38:37;40.42;;;9.18;;
73172;SDS011;61388;54.962;73.394;2022-09-03T16:43:59;30.40;;;8.80;;
73172;SDS011;61388;54.962;73.394;2022-09-03T16:46:53;34.67;;;8.57;;
73172;SDS011;61388;54.962;73.394;2022-09-03T16:49:31;35.13;;;8.85;;
73172;SDS011;61388;54.962;73.394;2022-09-03T16:52:37;40.63;;;9.90;;
73172;SDS011;61388;54.962;73.394;2022-09-03T16:55:13;22.75;;;8.93;;
73172;SDS011;61388;54.962;73.394;2022-09-03T17:00:46;31.13;;;8.27;;
73172;SDS011;61388;54.962;73.394;2022-09-03T17:13:48;37.57;;;9.13;;
73172;SDS011;61388;54.962;73.394;2022-09-03T17:25:03;31.63;;;8.93;;
73172;SDS011;61388;54.962;73.394;2022-09-03T17:27:42;30.17;;;8.80;;
73172;SDS011;61388;54.962;73.394;2022-09-03T17:30:18;35.50;;;9.18;;
73172;SDS011;61388;54.962;73.394;2022-09-03T17:35:30;29.13;;;8.35;;
73172;SDS011;61388;54.962;73.394;2022-09-03T17:38:06;42.70;;;9.48;;
73172;SDS011;61388;54.962;73.394;2022-09-03T17:53:56;30.20;;;9.83;;
73172;SDS011;61388;54.962;73.394;2022-09-03T17:56:39;31.95;;;9.20;;
73172;SDS011;61388;54.962;73.394;2022-09-03T17:59:20;35.42;;;11.45;;
73172;SDS011;61388;54.962;73.394;2022-09-03T18:01:51;46.35;;;9.55;;
73172;SDS011;61388;54.962;73.394;2022-09-03T18:04:30;33.05;;;9.45;;
73172;SDS011;61388;54.962;73.394;2022-09-03T18:09:41;42.67;;;9.57;;
73172;SDS011;61388;54.962;73.394;2022-09-03T18:12:14;27.98;;;10.35;;
73172;SDS011;61388;54.962;73.394;2022-09-03T18:20:08;46.37;;;13.53;;
73172;SDS011;61388;54.962;73.394;2022-09-03T18:23:02;52.30;;;13.70;;
73172;SDS011;61388;54.962;73.394;2022-09-03T18:26:00;39.17;;;13.75;;
73172;SDS011;61388;54.962;73.394;2022-09-03T18:29:06;39.20;;;13.25;;
73172;SDS011;61388;54.962;73.394;2022-09-03T18:31:52;33.40;;;13.82;;
73172;SDS011;61388;54.962;73.394;2022-09-03T18:34:36;36.97;;;13.97;;
73172;SDS011;61388;54.962;73.394;2022-09-03T18:37:22;143.88;;;22.42;;
73172;SDS011;61388;54.962;73.394;2022-09-03T18:40:08;159.57;;;26.05;;
73172;SDS011;61388;54.962;73.394;2022-09-03T18:43:11;125.00;;;28.10;;
73172;SDS011;61388;54.962;73.394;2022-09-03T18:46:13;112.78;;;28.95;;
73172;SDS011;61388;54.962;73.394;2022-09-03T18:52:38;68.80;;;25.70;;
73172;SDS011;61388;54.962;73.394;2022-09-03T18:58:09;57.47;;;26.55;;
73172;SDS011;61388;54.962;73.394;2022-09-03T19:04:14;53.67;;;16.47;;
73172;SDS011;61388;54.962;73.394;2022-09-03T19:10:21;93.90;;;66.95;;
73172;SDS011;61388;54.962;73.394;2022-09-03T19:13:24;74.38;;;66.22;;
73172;SDS011;61388;54.962;73.394;2022-09-03T19:21:55;35.17;;;16.83;;
73172;SDS011;61388;54.962;73.394;2022-09-03T19:24:54;35.50;;;13.20;;
73172;SDS011;61388;54.962;73.394;2022-09-03T19:27:44;37.90;;;12.45;;
73172;SDS011;61388;54.962;73.394;2022-09-03T19:30:47;40.50;;;18.42;;
73172;SDS011;61388;54.962;73.394;2022-09-03T19:33:43;44.23;;;16.23;;
73172;SDS011;61388;54.962;73.394;2022-09-03T19:48:45;48.20;;;16.37;;